LMML/MLA METAR and TAF weather

Enter ICAO airport designator
Station Type Date Time Source
LMML METAR 2020/10/20 17:45 UTC NOAA

LMML 201745Z 10005KT 9999 FEW028 18/13 Q1024 NOSIG


Station Type Date Time Source
LMML Decoded METAR 2020/10/20 17:45 UTC NOAA

Luqa, Malta (LMML) 35-51N 014-29E 91M
Oct 20, 2020 - 01:45 PM EDT / 2020.10.20 1745 UTC
Wind: from the E (100 degrees) at 6 MPH (5 KT):0
Visibility: greater than 7 mile(s):0
Sky conditions: mostly clear
Temperature: 64 F (18 C)
Dew Point: 55 F (13 C)
Relative Humidity: 72%
Pressure (altimeter): 30.24 in. Hg (1024 hPa)
ob: LMML 201745Z 10005KT 9999 FEW028 18/13 Q1024 NOSIG
cycle: 18

Station Type Date Time Source
LMML TAF 2020/10/20 18:49 UTC NOAA

TAF LMML 201700Z 2018/2118 09006KT 9999 SCT025

Example: see airport list